createdAt,value
2023-01-20T00:00:45.928Z,0.60
2023-01-20T00:03:33.507Z,0.60
2023-01-20T00:06:22.275Z,0.80
2023-01-20T00:09:16.005Z,0.90
2023-01-20T00:12:03.821Z,0.60
2023-01-20T00:14:51.503Z,0.40
2023-01-20T00:17:39.072Z,0.20
2023-01-20T00:20:26.732Z,0.30
2023-01-20T00:23:14.639Z,0.40
2023-01-20T00:26:26.833Z,0.30
2023-01-20T00:29:14.483Z,0.50
2023-01-20T00:32:02.479Z,0.60
2023-01-20T00:34:50.453Z,0.70
2023-01-20T00:37:38.319Z,0.60
2023-01-20T00:40:25.880Z,0.70
2023-01-20T00:43:13.539Z,0.80
2023-01-20T00:46:01.395Z,0.80
2023-01-20T00:48:49.366Z,0.50
2023-01-20T00:51:37.119Z,0.10
2023-01-20T00:54:24.719Z,0.20
2023-01-20T00:57:12.713Z,0.60
2023-01-20T01:00:00.488Z,0.70
2023-01-20T01:02:48.029Z,0.90
2023-01-20T01:05:36.134Z,0.90
2023-01-20T01:08:23.739Z,1.00
2023-01-20T01:11:12.703Z,1.10
2023-01-20T01:14:00.438Z,1.10
2023-01-20T01:16:48.036Z,1.20
2023-01-20T01:19:35.800Z,0.60
2023-01-20T01:22:23.482Z,0.60
2023-01-20T01:25:11.226Z,0.80
2023-01-20T01:27:59.463Z,0.90
2023-01-20T01:30:47.122Z,0.60
2023-01-20T01:33:35.497Z,0.40
2023-01-20T01:36:23.418Z,0.30
2023-01-20T01:39:11.023Z,0.40
2023-01-20T01:41:58.671Z,0.40
2023-01-20T01:45:11.602Z,0.50
2023-01-20T01:48:07.493Z,0.70
2023-01-20T01:51:02.681Z,0.70
2023-01-20T01:54:02.149Z,0.30
2023-01-20T01:56:51.388Z,0.20
2023-01-20T01:59:39.497Z,0.40
2023-01-20T02:02:27.268Z,0.50
2023-01-20T02:05:16.379Z,0.50
2023-01-20T02:08:04.678Z,0.60
2023-01-20T02:10:52.360Z,0.10
2023-01-20T02:13:40.906Z,-0.60
2023-01-20T02:16:55.556Z,-0.70
2023-01-20T02:19:49.104Z,-0.30
2023-01-20T02:22:43.286Z,-0.40
2023-01-20T02:26:03.830Z,-0.70
2023-01-20T02:29:30.044Z,-0.70
2023-01-20T02:32:27.605Z,-0.40
2023-01-20T02:35:29.805Z,-0.40
2023-01-20T02:38:57.738Z,-0.30
2023-01-20T02:41:45.356Z,-0.20
2023-01-20T02:44:38.645Z,-0.10
2023-01-20T02:47:37.709Z,0.00
2023-01-20T02:50:32.423Z,0.00
2023-01-20T02:53:22.819Z,0.10
2023-01-20T02:56:13.202Z,0.00
2023-01-20T02:59:15.654Z,-0.10
2023-01-20T03:02:08.145Z,-0.20
2023-01-20T03:05:04.533Z,-0.10
2023-01-20T03:07:54.736Z,-0.10
2023-01-20T03:10:45.464Z,-0.20
2023-01-20T03:13:39.897Z,0.00
2023-01-20T03:16:29.347Z,0.10
2023-01-20T03:19:20.429Z,-0.20
2023-01-20T03:22:08.445Z,-0.40
2023-01-20T03:24:58.598Z,-0.50
2023-01-20T03:27:46.244Z,-0.40
2023-01-20T03:30:34.264Z,-0.30
2023-01-20T03:33:22.321Z,-0.10
2023-01-20T03:36:10.758Z,0.00
2023-01-20T03:38:59.340Z,0.10
2023-01-20T03:41:55.971Z,0.20
2023-01-20T03:45:01.560Z,0.20
2023-01-20T03:48:12.148Z,0.00
2023-01-20T03:51:07.154Z,0.00
2023-01-20T03:54:09.007Z,0.00
2023-01-20T03:57:14.126Z,-0.30
2023-01-20T04:00:04.181Z,-0.80
2023-01-20T04:02:54.529Z,-0.70
2023-01-20T04:05:44.561Z,-0.50
2023-01-20T04:08:37.440Z,-0.40
2023-01-20T04:11:26.216Z,-0.40
2023-01-20T04:14:13.900Z,-0.30
2023-01-20T04:17:03.469Z,-0.30
2023-01-20T04:19:51.597Z,-0.20
2023-01-20T04:22:55.174Z,-0.20
2023-01-20T04:25:43.334Z,-0.30
2023-01-20T04:28:31.773Z,-0.50
2023-01-20T04:31:30.140Z,-0.60
2023-01-20T04:34:18.576Z,-0.60
2023-01-20T04:37:06.382Z,-0.80
2023-01-20T04:39:54.443Z,-0.80
2023-01-20T04:42:42.050Z,-0.40
2023-01-20T04:45:29.746Z,-0.40
2023-01-20T04:48:17.453Z,-0.10
2023-01-20T04:51:07.475Z,0.20
2023-01-20T04:53:58.915Z,0.10
2023-01-20T04:56:48.709Z,0.10
2023-01-20T04:59:36.288Z,0.10
2023-01-20T05:02:23.946Z,0.00
2023-01-20T05:05:11.707Z,-0.40
2023-01-20T05:07:59.896Z,-0.30
2023-01-20T05:10:47.599Z,-0.10
2023-01-20T05:13:39.155Z,0.10
2023-01-20T05:16:31.975Z,0.00
2023-01-20T05:19:19.771Z,0.20
2023-01-20T05:22:07.385Z,0.20
2023-01-20T05:24:55.117Z,0.00
2023-01-20T05:27:42.805Z,0.00
2023-01-20T05:30:33.487Z,0.00
2023-01-20T05:33:21.206Z,0.20
2023-01-20T05:36:10.751Z,-0.40
2023-01-20T05:38:58.387Z,-0.60
2023-01-20T05:41:46.554Z,-0.60
2023-01-20T05:44:35.408Z,-0.40
2023-01-20T05:47:22.899Z,-0.30
2023-01-20T05:50:11.369Z,-0.20
2023-01-20T05:52:59.029Z,-0.10
2023-01-20T05:55:47.038Z,-0.30
2023-01-20T05:58:34.973Z,-0.10
2023-01-20T06:01:22.934Z,0.00
2023-01-20T06:04:10.634Z,0.20
2023-01-20T06:06:58.374Z,0.30
2023-01-20T06:09:45.969Z,0.40
2023-01-20T06:12:33.590Z,0.40
2023-01-20T06:15:23.806Z,0.40
2023-01-20T06:18:14.214Z,0.40
2023-01-20T06:21:02.754Z,0.40
2023-01-20T06:23:50.440Z,0.50
2023-01-20T06:26:38.019Z,0.50
2023-01-20T06:29:25.657Z,0.10
2023-01-20T06:32:13.967Z,0.00
2023-01-20T06:35:06.583Z,-0.10
2023-01-20T06:38:10.961Z,0.20
2023-01-20T06:41:17.724Z,-0.20
2023-01-20T06:44:06.047Z,-0.40
2023-01-20T06:46:54.746Z,-0.30
2023-01-20T06:49:42.324Z,-0.30
2023-01-20T06:52:30.510Z,-0.20
2023-01-20T06:55:18.356Z,0.00
2023-01-20T06:58:20.349Z,0.30
2023-01-20T07:01:14.642Z,0.00
2023-01-20T07:04:03.090Z,0.20
2023-01-20T07:06:51.473Z,0.40
2023-01-20T07:09:44.904Z,0.60
2023-01-20T07:12:59.730Z,0.70
2023-01-20T07:15:53.571Z,0.20
2023-01-20T07:18:43.213Z,0.10
2023-01-20T07:21:53.886Z,0.10
2023-01-20T07:24:52.888Z,0.30
2023-01-20T07:27:46.857Z,0.60
2023-01-20T07:30:55.609Z,0.30
2023-01-20T07:33:51.120Z,0.10
2023-01-20T07:36:51.377Z,0.30
2023-01-20T07:39:56.670Z,0.40
2023-01-20T07:42:57.852Z,0.30
2023-01-20T07:46:14.947Z,0.20
2023-01-20T07:49:15.222Z,0.50
2023-01-20T07:52:07.405Z,0.80
2023-01-20T07:55:06.102Z,1.10
2023-01-20T07:58:11.868Z,1.30
2023-01-20T08:01:24.048Z,1.10
2023-01-20T08:07:33.716Z,1.50
2023-01-20T08:10:22.299Z,1.40
2023-01-20T08:13:29.796Z,1.30
2023-01-20T08:20:04.303Z,1.40
2023-01-20T08:23:04.346Z,0.60
2023-01-20T08:49:08.326Z,1.10
2023-01-20T08:50:58.855Z,1.00
2023-01-20T09:07:16.012Z,-0.20
2023-01-20T09:10:11.527Z,0.20
2023-01-20T09:13:10.825Z,0.60
2023-01-20T09:19:29.456Z,0.50
2023-01-20T09:39:02.227Z,0.20
2023-01-20T09:53:49.149Z,0.30
2023-01-20T10:04:32.807Z,1.70
2023-01-20T10:26:17.780Z,1.70
2023-01-20T10:29:28.079Z,1.90
2023-01-20T10:32:47.122Z,2.10
2023-01-20T10:47:58.677Z,1.20
2023-01-20T10:55:21.976Z,1.80
2023-01-20T10:58:22.769Z,2.30
2023-01-20T11:01:19.370Z,2.30
2023-01-20T11:04:28.844Z,2.30
2023-01-20T11:10:37.970Z,3.10
2023-01-20T11:13:28.804Z,2.30
2023-01-20T11:37:45.885Z,1.90
2023-01-20T11:47:39.741Z,1.90
2023-01-20T11:50:57.291Z,1.80
2023-01-20T11:53:47.159Z,2.10
2023-01-20T11:56:47.775Z,2.60
2023-01-20T11:59:37.755Z,3.60
2023-01-20T12:02:29.453Z,2.60
2023-01-20T12:05:55.236Z,2.60
2023-01-20T12:09:05.346Z,3.20
2023-01-20T12:11:58.268Z,3.70
2023-01-20T12:15:04.386Z,4.10
2023-01-20T12:18:08.189Z,4.20
2023-01-20T12:21:11.314Z,3.90
2023-01-20T12:24:16.109Z,3.10
2023-01-20T12:27:04.301Z,2.10
2023-01-20T12:29:57.247Z,1.80
2023-01-20T12:32:46.495Z,1.80
2023-01-20T12:35:43.656Z,1.50
2023-01-20T12:38:42.484Z,1.60
2023-01-20T12:44:16.486Z,1.10
2023-01-20T12:47:26.626Z,1.10
2023-01-20T12:50:27.290Z,1.20
2023-01-20T12:53:51.388Z,1.60
2023-01-20T12:57:05.406Z,1.90
2023-01-20T13:00:46.646Z,2.30
2023-01-20T13:04:02.794Z,2.70
2023-01-20T13:07:28.101Z,3.00
2023-01-20T13:10:27.592Z,2.70
2023-01-20T13:13:56.415Z,2.60
2023-01-20T13:17:03.568Z,2.50
2023-01-20T13:19:59.346Z,2.50
2023-01-20T13:22:47.607Z,2.40
2023-01-20T13:25:39.392Z,2.50
2023-01-20T13:28:29.213Z,2.20
2023-01-20T13:31:40.276Z,2.20
2023-01-20T13:34:47.538Z,2.90
2023-01-20T13:38:04.525Z,3.10
2023-01-20T13:41:07.150Z,3.80
2023-01-20T13:44:04.625Z,3.90
2023-01-20T13:47:02.726Z,4.30
2023-01-20T13:49:58.017Z,3.80
2023-01-20T13:56:11.035Z,4.30
2023-01-20T13:58:59.511Z,4.70
2023-01-20T14:02:00.333Z,4.50
2023-01-20T14:04:55.418Z,4.20
2023-01-20T14:07:56.781Z,3.90
2023-01-20T14:10:45.091Z,3.70
2023-01-20T14:13:33.012Z,3.70
2023-01-20T14:16:26.593Z,3.60
2023-01-20T14:22:39.217Z,3.40
2023-01-20T14:25:28.131Z,3.30
2023-01-20T14:28:20.362Z,3.40
2023-01-20T14:31:19.410Z,3.40
2023-01-20T14:34:34.044Z,3.40
2023-01-20T14:37:22.109Z,3.60
2023-01-20T14:40:13.094Z,3.70
2023-01-20T14:43:20.935Z,3.60
2023-01-20T14:46:20.446Z,3.30
2023-01-20T14:49:18.906Z,3.00
2023-01-20T14:52:08.750Z,2.70
2023-01-20T14:54:57.502Z,2.70
2023-01-20T14:57:49.797Z,2.50
2023-01-20T15:00:46.246Z,2.60
2023-01-20T15:03:36.353Z,2.70
2023-01-20T15:06:25.766Z,2.70
2023-01-20T15:09:34.720Z,2.60
2023-01-20T15:12:36.041Z,2.50
2023-01-20T15:15:29.752Z,2.50
2023-01-20T15:18:23.919Z,2.50
2023-01-20T15:21:28.142Z,2.40
2023-01-20T15:24:23.554Z,2.00
2023-01-20T15:27:33.759Z,2.00
2023-01-20T15:30:26.355Z,2.20
2023-01-20T15:33:15.086Z,2.30
2023-01-20T15:36:18.892Z,2.10
2023-01-20T15:39:20.807Z,2.10
2023-01-20T15:42:11.750Z,2.10
2023-01-20T15:45:05.087Z,1.80
2023-01-20T15:47:54.336Z,1.70
2023-01-20T15:50:43.330Z,1.80
2023-01-20T15:53:31.491Z,1.80
2023-01-20T15:56:23.956Z,1.80
2023-01-20T15:59:17.777Z,1.80
2023-01-20T16:02:16.371Z,1.70
2023-01-20T16:05:05.932Z,1.80
2023-01-20T16:07:57.871Z,1.90
2023-01-20T16:10:58.871Z,2.00
2023-01-20T16:13:53.576Z,1.80
2023-01-20T16:16:44.433Z,1.70
2023-01-20T18:54:02.367Z,1.80
2023-01-20T18:56:58.233Z,1.70
2023-01-20T18:59:48.451Z,1.80
2023-01-20T19:03:08.572Z,1.40
2023-01-20T19:09:12.107Z,1.20
2023-01-20T19:12:28.948Z,1.10
2023-01-20T19:15:43.852Z,1.10
2023-01-20T19:18:32.108Z,1.40
2023-01-20T19:21:20.289Z,1.10
2023-01-20T19:24:08.583Z,1.20
2023-01-20T19:27:02.552Z,1.40
2023-01-20T19:29:50.330Z,1.60
2023-01-20T19:32:43.606Z,1.40
2023-01-20T19:38:40.015Z,1.80
2023-01-20T19:41:35.511Z,1.80
2023-01-20T19:44:40.141Z,1.80
2023-01-20T19:47:33.608Z,2.00
2023-01-20T19:50:21.335Z,2.00
2023-01-20T19:53:08.865Z,1.90
2023-01-20T19:56:08.203Z,1.80
2023-01-20T19:58:56.184Z,1.80
2023-01-20T20:01:44.019Z,1.60
2023-01-20T20:04:32.741Z,1.70
2023-01-20T20:07:20.454Z,1.50
2023-01-20T20:10:14.682Z,1.20
2023-01-20T20:13:05.857Z,1.00
2023-01-20T20:16:04.952Z,0.80
2023-01-20T20:18:53.214Z,0.80
2023-01-20T20:21:41.249Z,1.00
2023-01-20T20:24:28.969Z,1.30
2023-01-20T20:27:19.802Z,1.60
2023-01-20T20:30:08.712Z,1.40
2023-01-20T20:33:01.356Z,1.60
2023-01-20T20:36:04.871Z,1.80
2023-01-20T20:39:02.410Z,2.00
2023-01-20T20:41:54.668Z,1.90
2023-01-20T20:44:45.086Z,1.80
2023-01-20T20:47:36.539Z,1.80
2023-01-20T20:50:31.675Z,1.70
2023-01-20T20:53:20.566Z,1.90
2023-01-20T20:56:16.674Z,1.70
2023-01-20T20:59:08.922Z,1.70
2023-01-20T21:01:56.849Z,1.50
2023-01-20T21:04:58.334Z,1.70
2023-01-20T21:08:00.847Z,1.80
2023-01-20T21:10:49.743Z,1.80
2023-01-20T21:13:52.895Z,1.80
2023-01-20T21:16:41.728Z,1.80
2023-01-20T21:19:30.847Z,1.80
2023-01-20T21:22:22.976Z,1.80
2023-01-20T21:25:11.092Z,1.70
2023-01-20T21:27:59.931Z,1.70
2023-01-20T21:30:54.310Z,1.80
2023-01-20T21:33:51.546Z,1.80
2023-01-20T21:36:46.307Z,1.70
2023-01-20T21:39:39.035Z,1.70
2023-01-20T21:42:27.804Z,1.70
2023-01-20T21:45:15.582Z,1.50
2023-01-20T21:48:23.393Z,1.40
2023-01-20T21:51:29.985Z,1.50
2023-01-20T21:54:18.423Z,1.50
2023-01-20T21:57:06.656Z,1.50
2023-01-20T21:59:54.851Z,1.60
2023-01-20T22:02:47.882Z,1.80
2023-01-20T22:05:39.013Z,1.70
2023-01-20T22:08:32.764Z,1.70
2023-01-20T22:11:21.873Z,1.70
2023-01-20T22:14:16.972Z,1.50
2023-01-20T22:17:12.685Z,1.40
2023-01-20T22:20:22.652Z,1.40
2023-01-20T22:23:12.314Z,1.30
2023-01-20T22:26:08.893Z,1.30
2023-01-20T22:29:38.540Z,1.10
2023-01-20T22:32:29.068Z,1.20
2023-01-20T22:35:29.045Z,1.10
2023-01-20T22:38:32.885Z,1.10
2023-01-20T22:41:23.995Z,1.10
2023-01-20T22:44:34.890Z,1.00
2023-01-20T22:47:28.852Z,1.00
2023-01-20T22:50:22.100Z,1.10
2023-01-20T22:53:40.869Z,1.10
2023-01-20T23:07:14.246Z,1.30
2023-01-20T23:18:45.770Z,1.20
2023-01-20T23:25:13.949Z,1.40
2023-01-20T23:28:05.600Z,1.30
2023-01-20T23:31:29.141Z,1.20
2023-01-20T23:34:51.146Z,1.10
2023-01-20T23:41:39.037Z,1.20
2023-01-20T23:44:49.165Z,1.40
2023-01-20T23:47:36.951Z,1.40
2023-01-20T23:51:04.869Z,1.40
2023-01-20T23:54:16.008Z,1.30
2023-01-20T23:57:41.875Z,1.20
